createdAt,value
2023-01-28T00:00:34.454Z,100966.80
2023-01-28T00:03:01.169Z,100964.58
2023-01-28T00:05:30.688Z,100959.63
2023-01-28T00:07:57.267Z,100959.65
2023-01-28T00:10:24.299Z,100956.59
2023-01-28T00:12:52.279Z,100954.05
2023-01-28T00:15:18.912Z,100949.76
2023-01-28T00:17:45.604Z,100948.22
2023-01-28T00:20:12.940Z,100947.91
2023-01-28T00:22:40.201Z,100953.09
2023-01-28T00:25:07.240Z,100949.16
2023-01-28T00:27:34.233Z,100946.61
2023-01-28T00:30:00.857Z,100948.69
2023-01-28T00:32:28.145Z,100950.63
2023-01-28T00:34:55.101Z,100947.23
2023-01-28T00:37:22.609Z,100947.44
2023-01-28T00:39:49.357Z,100945.57
2023-01-28T00:42:16.143Z,100942.33
2023-01-28T00:44:43.239Z,100941.85
2023-01-28T00:47:10.575Z,100941.68
2023-01-28T00:49:37.180Z,100942.39
2023-01-28T00:59:45.802Z,100945.17
2023-01-28T01:02:13.931Z,100945.89
2023-01-28T01:04:55.082Z,100941.11
2023-01-28T01:07:32.280Z,100942.66
2023-01-28T01:10:03.981Z,100940.29
2023-01-28T01:12:32.643Z,100936.89
2023-01-28T01:15:02.634Z,100935.86
2023-01-28T01:17:32.375Z,100936.55
2023-01-28T01:20:00.329Z,100938.95
2023-01-28T01:22:28.359Z,100940.52
2023-01-28T01:24:56.396Z,100941.20
2023-01-28T01:27:24.448Z,100931.27
2023-01-28T01:29:53.088Z,100925.98
2023-01-28T01:32:22.512Z,100927.20
2023-01-28T01:34:50.576Z,100928.23
2023-01-28T01:37:18.540Z,100929.27
2023-01-28T01:39:46.641Z,100929.61
2023-01-28T01:42:14.786Z,100924.82
2023-01-28T01:44:59.412Z,100923.81
2023-01-28T01:47:28.506Z,100922.81
2023-01-28T01:49:56.873Z,100916.98
2023-01-28T01:52:27.713Z,100905.16
2023-01-28T01:54:57.366Z,100893.02
2023-01-28T01:57:29.397Z,100896.65
2023-01-28T02:00:05.277Z,100894.13
2023-01-28T02:02:44.010Z,100888.48
2023-01-28T02:05:13.886Z,100889.69
2023-01-28T02:07:42.160Z,100884.74
2023-01-28T02:10:10.615Z,100883.04
2023-01-28T02:12:41.138Z,100884.95
2023-01-28T02:15:11.773Z,100888.40
2023-01-28T02:17:39.984Z,100891.00
2023-01-28T02:20:12.598Z,100895.46
2023-01-28T02:23:15.551Z,100900.29
2023-01-28T02:26:02.153Z,100901.20
2023-01-28T02:28:39.689Z,100901.20
2023-01-28T02:31:16.326Z,100905.50
2023-01-28T02:34:15.195Z,100906.52
2023-01-28T02:36:48.873Z,100909.58
2023-01-28T02:39:20.573Z,100911.98
2023-01-28T02:41:52.448Z,100914.02
2023-01-28T02:44:20.522Z,100910.76
2023-01-28T02:47:07.573Z,100906.48
2023-01-28T02:49:47.257Z,100908.85
2023-01-28T02:52:56.095Z,100908.16
2023-01-28T02:55:34.332Z,100905.39
2023-01-28T02:58:14.469Z,100903.34
2023-01-28T03:00:45.549Z,100901.45
2023-01-28T03:03:55.473Z,100901.28
2023-01-28T03:06:46.680Z,100898.39
2023-01-28T03:09:25.255Z,100894.98
2023-01-28T03:12:36.433Z,100892.63
2023-01-28T03:15:30.107Z,100889.58
2023-01-28T03:18:17.977Z,100893.51
2023-01-28T03:21:21.616Z,100892.67
2023-01-28T03:24:19.156Z,100897.64
2023-01-28T03:27:13.302Z,100887.05
2023-01-28T03:30:00.670Z,100884.68
2023-01-28T03:32:47.832Z,100875.63
2023-01-28T03:35:35.392Z,100871.38
2023-01-28T03:38:18.555Z,100872.77
2023-01-28T03:40:57.719Z,100867.63
2023-01-28T03:43:26.176Z,100862.85
2023-01-28T03:45:55.556Z,100863.71
2023-01-28T03:48:25.485Z,100862.20
2023-01-28T03:50:55.214Z,100863.59
2023-01-28T03:53:24.148Z,100863.77
2023-01-28T03:55:53.932Z,100860.17
2023-01-28T03:58:23.444Z,100865.35
2023-01-28T04:00:52.221Z,100868.11
2023-01-28T04:03:20.769Z,100871.90
2023-01-28T04:06:07.766Z,100867.98
2023-01-28T04:09:02.273Z,100873.30
2023-01-28T04:11:33.514Z,100871.25
2023-01-28T04:14:04.299Z,100864.77
2023-01-28T04:16:55.113Z,100864.45
2023-01-28T04:19:24.742Z,100869.94
2023-01-28T04:21:56.923Z,100872.02
2023-01-28T04:24:26.750Z,100881.74
2023-01-28T04:26:56.459Z,100877.48
2023-01-28T04:29:26.648Z,100871.65
2023-01-28T04:31:58.096Z,100869.61
2023-01-28T04:34:56.527Z,100870.66
2023-01-28T04:37:48.467Z,100870.66
2023-01-28T04:40:37.520Z,100868.95
2023-01-28T04:43:12.776Z,100874.41
2023-01-28T04:45:52.511Z,100877.34
2023-01-28T04:48:36.660Z,100876.15
2023-01-28T04:51:23.809Z,100882.13
2023-01-28T04:54:07.939Z,100885.89
2023-01-28T04:56:37.542Z,100884.19
2023-01-28T04:59:05.565Z,100882.98
2023-01-28T05:01:34.705Z,100886.74
2023-01-28T05:04:06.255Z,100882.31
2023-01-28T05:06:37.690Z,100884.20
2023-01-28T05:09:13.264Z,100891.38
2023-01-28T05:11:42.485Z,100893.44
2023-01-28T05:14:10.540Z,100895.86
2023-01-28T05:16:46.251Z,100901.33
2023-01-28T05:19:14.302Z,100905.80
2023-01-28T05:21:44.510Z,100907.36
2023-01-28T05:24:36.983Z,100912.16
2023-01-28T05:27:05.075Z,100912.70
2023-01-28T05:29:34.243Z,100916.63
2023-01-28T05:32:02.409Z,100915.79
2023-01-28T05:34:32.211Z,100920.59
2023-01-28T05:37:04.701Z,100919.38
2023-01-28T05:39:37.047Z,100917.52
2023-01-28T05:42:05.414Z,100918.53
2023-01-28T05:44:36.452Z,100915.48
2023-01-28T05:47:17.916Z,100918.02
2023-01-28T05:49:51.927Z,100923.34
2023-01-28T05:52:33.853Z,100933.10
2023-01-28T05:55:02.368Z,100933.62
2023-01-28T05:57:30.615Z,100934.82
2023-01-28T06:00:00.361Z,100928.32
2023-01-28T08:09:36.796Z,100873.44
2023-01-28T08:12:04.505Z,100876.30
2023-01-28T08:14:31.341Z,100877.10
2023-01-28T08:16:58.037Z,100878.27
2023-01-28T08:19:24.755Z,100878.70
2023-01-28T08:21:51.424Z,100873.29
2023-01-28T08:24:18.381Z,100871.97
2023-01-28T08:26:47.667Z,100877.89
2023-01-28T08:29:14.233Z,100876.59
2023-01-28T08:31:41.065Z,100879.45
2023-01-28T08:34:07.890Z,100880.91
2023-01-28T08:36:34.868Z,100877.71
2023-01-28T08:39:05.409Z,100876.72
2023-01-28T08:41:32.247Z,100875.28
2023-01-28T08:43:59.816Z,100880.88
2023-01-28T08:46:27.048Z,100873.46
2023-01-28T08:48:53.792Z,100869.15
2023-01-28T08:51:21.302Z,100864.08
2023-01-28T08:53:48.337Z,100863.59
2023-01-28T08:56:15.958Z,100870.16
2023-01-28T08:58:42.604Z,100870.80
2023-01-28T09:01:09.242Z,100868.91
2023-01-28T09:03:36.055Z,100862.88
2023-01-28T09:06:03.512Z,100859.88
2023-01-28T09:08:32.293Z,100865.95
2023-01-28T09:10:59.238Z,100871.42
2023-01-28T09:13:26.610Z,100879.20
2023-01-28T09:15:53.875Z,100870.37
2023-01-28T09:18:20.629Z,100860.64
2023-01-28T09:20:47.517Z,100853.59
2023-01-28T09:23:14.297Z,100856.46
2023-01-28T09:25:41.803Z,100853.36
2023-01-28T09:28:08.598Z,100846.52
2023-01-28T09:30:37.791Z,100847.71
2023-01-28T09:33:04.981Z,100843.29
2023-01-28T09:35:32.797Z,100843.48
2023-01-28T09:37:59.757Z,100840.04
2023-01-28T09:40:32.690Z,100831.85
2023-01-28T09:43:25.145Z,100828.14
2023-01-28T09:45:52.563Z,100826.63
2023-01-28T09:48:37.580Z,100824.02
2023-01-28T09:51:07.926Z,100827.08
2023-01-28T09:53:39.041Z,100818.94
2023-01-28T09:56:13.995Z,100814.09
2023-01-28T09:58:43.681Z,100818.77
2023-01-28T10:01:31.914Z,100822.20
2023-01-28T10:04:22.455Z,100823.95
2023-01-28T10:07:27.285Z,100825.08
2023-01-28T10:10:12.860Z,100824.39
2023-01-28T10:13:03.278Z,100820.93
2023-01-28T10:15:57.586Z,100813.86
2023-01-28T10:18:36.212Z,100807.86
2023-01-28T10:21:10.596Z,100807.30
2023-01-28T10:23:46.983Z,100807.48
2023-01-28T10:26:25.302Z,100808.95
2023-01-28T10:28:54.957Z,100806.97
2023-01-28T10:31:30.035Z,100810.80
2023-01-28T10:33:56.749Z,100805.95
2023-01-28T10:36:23.355Z,100804.02
2023-01-28T10:38:50.729Z,100810.37
2023-01-28T10:41:20.546Z,100807.79
2023-01-28T10:43:47.224Z,100811.92
2023-01-28T10:46:16.912Z,100802.98
2023-01-28T10:49:16.552Z,100797.27
2023-01-28T10:51:43.952Z,100798.81
2023-01-28T10:54:18.092Z,100797.97
2023-01-28T10:56:44.769Z,100798.36
2023-01-28T10:59:17.286Z,100799.61
2023-01-28T11:01:45.772Z,100803.99
2023-01-28T11:04:33.999Z,100796.35
2023-01-28T11:07:05.311Z,100800.88
2023-01-28T11:09:34.834Z,100802.29
2023-01-28T11:12:25.438Z,100801.23
2023-01-28T11:14:54.660Z,100803.77
2023-01-28T11:17:24.117Z,100805.19
2023-01-28T11:19:53.192Z,100800.14
2023-01-28T11:22:27.222Z,100798.69
2023-01-28T11:24:54.124Z,100796.92
2023-01-28T11:27:24.604Z,100789.73
2023-01-28T11:29:51.528Z,100782.52
2023-01-28T11:32:19.206Z,100782.48
2023-01-28T11:34:53.848Z,100780.94
2023-01-28T11:37:22.447Z,100775.06
2023-01-28T11:39:49.101Z,100779.66
2023-01-28T11:42:18.032Z,100777.27
2023-01-28T11:44:48.180Z,100775.39
2023-01-28T11:47:20.916Z,100772.50
2023-01-28T11:49:50.366Z,100772.30
2023-01-28T11:52:48.664Z,100766.00
2023-01-28T11:55:40.157Z,100762.60
2023-01-28T11:58:30.227Z,100763.15
2023-01-28T12:01:13.730Z,100761.92
2023-01-28T12:04:03.412Z,100767.16
2023-01-28T14:54:57.440Z,100766.73
2023-01-28T14:57:33.431Z,100766.47
2023-01-28T15:00:07.597Z,100763.64
2023-01-28T15:02:34.287Z,100760.83
2023-01-28T15:05:08.931Z,100764.88
2023-01-28T15:07:35.690Z,100768.56
2023-01-28T15:10:04.137Z,100767.27
2023-01-28T15:12:39.128Z,100767.58
2023-01-28T15:15:39.216Z,100770.80
2023-01-28T15:18:13.863Z,100770.23
2023-01-28T15:20:46.100Z,100768.64
2023-01-28T15:23:18.816Z,100768.28
2023-01-28T15:25:46.223Z,100766.66
2023-01-28T15:28:36.530Z,100770.58
2023-01-28T15:31:03.371Z,100779.84
2023-01-28T15:33:31.238Z,100776.02
2023-01-28T15:35:58.276Z,100772.84
2023-01-28T15:38:26.847Z,100775.16
2023-01-28T15:40:58.739Z,100776.67
2023-01-28T15:43:28.227Z,100780.92
2023-01-28T15:45:56.372Z,100784.86
2023-01-28T15:48:25.308Z,100781.73
2023-01-28T15:51:02.205Z,100784.94
2023-01-28T15:53:50.391Z,100784.32
2023-01-28T15:56:24.159Z,100790.97
2023-01-28T15:58:50.989Z,100789.05
2023-01-28T16:01:21.920Z,100785.37
2023-01-28T16:04:02.360Z,100782.87
2023-01-28T16:06:37.217Z,100787.23
2023-01-28T16:09:27.902Z,100783.02
2023-01-28T16:12:07.227Z,100785.57
2023-01-28T16:14:40.611Z,100789.96
2023-01-28T16:17:08.791Z,100789.55
2023-01-28T16:19:40.655Z,100790.70
2023-01-28T16:22:08.241Z,100791.36
2023-01-28T16:24:37.793Z,100790.44
2023-01-28T16:27:08.954Z,100793.14
2023-01-28T16:29:37.067Z,100795.12
2023-01-28T16:32:04.012Z,100794.38
2023-01-28T16:34:31.230Z,100801.05
2023-01-28T16:36:59.017Z,100798.98
2023-01-28T16:39:25.986Z,100801.17
2023-01-28T16:41:53.361Z,100802.52
2023-01-28T16:44:20.096Z,100802.33
2023-01-28T16:46:46.739Z,100805.90
2023-01-28T16:49:15.578Z,100806.19
2023-01-28T16:51:43.383Z,100808.67
2023-01-28T16:54:14.637Z,100807.24
2023-01-28T16:56:45.966Z,100811.34
2023-01-28T16:59:15.095Z,100808.91
2023-01-28T17:01:43.209Z,100806.63
2023-01-28T17:04:12.378Z,100803.63
2023-01-28T17:06:43.828Z,100802.54
2023-01-28T17:09:12.061Z,100802.15
2023-01-28T17:11:41.521Z,100797.45
2023-01-28T17:14:09.569Z,100803.05
2023-01-28T17:16:37.141Z,100801.48
2023-01-28T17:19:04.058Z,100803.15
2023-01-28T17:21:30.954Z,100801.55
2023-01-28T17:23:59.461Z,100801.83
2023-01-28T17:26:28.472Z,100796.60
2023-01-28T17:28:55.786Z,100796.19
2023-01-28T17:31:22.721Z,100795.27
2023-01-28T17:33:55.898Z,100797.25
2023-01-28T17:36:23.498Z,100797.51
2023-01-28T17:38:50.711Z,100794.67
2023-01-28T17:41:17.869Z,100794.80
2023-01-28T17:43:54.307Z,100793.05
2023-01-28T17:46:22.052Z,100789.36
2023-01-28T17:48:48.802Z,100788.41
2023-01-28T17:51:18.435Z,100782.80
2023-01-28T17:53:46.710Z,100780.27
2023-01-28T17:56:18.081Z,100780.53
2023-01-28T17:58:49.248Z,100779.73
2023-01-28T18:01:15.869Z,100780.51
2023-01-28T18:03:42.516Z,100781.33
2023-01-28T18:06:09.442Z,100782.14
2023-01-28T18:08:36.170Z,100778.60
2023-01-28T20:18:15.900Z,100718.11
2023-01-28T20:20:51.989Z,100713.08
2023-01-28T20:23:19.091Z,100712.09
2023-01-28T20:25:51.120Z,100715.30
2023-01-28T20:28:18.410Z,100713.88
2023-01-28T20:30:45.312Z,100715.02
2023-01-28T20:33:12.352Z,100718.03
2023-01-28T20:35:38.904Z,100722.48
2023-01-28T20:38:05.765Z,100720.53
2023-01-28T20:40:32.740Z,100718.22
2023-01-28T20:42:59.423Z,100715.41
2023-01-28T20:45:26.433Z,100712.06
2023-01-28T20:47:53.684Z,100711.28
2023-01-28T20:50:20.715Z,100702.76
2023-01-28T20:52:47.780Z,100706.30
2023-01-28T20:55:15.174Z,100705.06
2023-01-28T20:57:44.397Z,100707.94
2023-01-28T21:00:12.001Z,100705.27
2023-01-28T21:02:39.954Z,100698.08
2023-01-28T21:05:07.175Z,100696.08
2023-01-28T21:07:34.521Z,100696.70
2023-01-28T21:10:02.542Z,100691.69
2023-01-28T21:12:30.993Z,100686.86
2023-01-28T21:14:57.958Z,100686.52
2023-01-28T21:17:25.815Z,100688.93
2023-01-28T21:19:53.712Z,100686.33
2023-01-28T21:22:20.468Z,100679.75
2023-01-28T21:24:48.647Z,100679.20
2023-01-28T21:27:15.540Z,100680.34
2023-01-28T21:29:42.459Z,100676.15
2023-01-28T21:32:10.638Z,100676.30
2023-01-28T21:34:37.539Z,100679.41
2023-01-28T21:37:04.298Z,100681.82
2023-01-28T21:39:30.884Z,100680.09
2023-01-28T21:41:57.662Z,100675.29
2023-01-28T21:44:24.706Z,100669.06
2023-01-28T21:46:51.533Z,100665.45
2023-01-28T21:49:18.199Z,100667.87
2023-01-28T21:51:48.122Z,100666.14
2023-01-28T21:54:18.587Z,100665.63
2023-01-28T21:56:48.634Z,100667.89
2023-01-28T21:59:28.423Z,100668.20
2023-01-28T22:01:56.260Z,100664.57
2023-01-28T22:04:26.200Z,100664.20
2023-01-28T22:06:53.742Z,100659.59
2023-01-28T22:09:20.476Z,100657.35
2023-01-28T22:11:47.192Z,100657.16
2023-01-28T22:14:14.018Z,100656.49
2023-01-28T22:16:41.498Z,100658.45
2023-01-28T22:19:08.652Z,100662.80
2023-01-28T22:21:40.217Z,100660.61
2023-01-28T22:24:08.871Z,100661.83
2023-01-28T22:26:36.072Z,100659.77
2023-01-28T22:29:03.548Z,100660.95
2023-01-28T22:31:30.361Z,100654.05
2023-01-28T22:33:57.101Z,100651.81
2023-01-28T22:36:24.105Z,100653.54
2023-01-28T22:38:50.914Z,100648.52
2023-01-28T22:41:18.599Z,100652.83
2023-01-28T22:43:45.951Z,100645.56
2023-01-28T22:46:12.905Z,100648.61
2023-01-28T22:48:39.775Z,100646.67
2023-01-28T22:51:09.774Z,100651.80
2023-01-28T22:53:36.875Z,100656.30
2023-01-28T22:56:03.725Z,100655.98
2023-01-28T22:58:34.436Z,100649.61
2023-01-28T23:01:01.389Z,100648.41
2023-01-28T23:03:28.408Z,100650.13
2023-01-28T23:06:02.621Z,100652.04
2023-01-28T23:08:30.619Z,100652.23
2023-01-28T23:11:00.147Z,100655.30
2023-01-28T23:13:47.679Z,100656.48
2023-01-28T23:16:33.136Z,100658.69
2023-01-28T23:19:18.943Z,100659.02
2023-01-28T23:22:04.090Z,100656.62
2023-01-28T23:24:32.240Z,100655.59
2023-01-28T23:27:00.215Z,100651.11
2023-01-28T23:29:27.406Z,100649.54
2023-01-28T23:32:00.464Z,100651.04
2023-01-28T23:34:30.126Z,100648.08
2023-01-28T23:36:57.916Z,100647.41
2023-01-28T23:39:24.553Z,100649.28
2023-01-28T23:41:51.161Z,100648.92
2023-01-28T23:44:25.297Z,100653.10
2023-01-28T23:46:52.249Z,100655.23
2023-01-28T23:49:19.015Z,100655.92
2023-01-28T23:51:45.677Z,100658.69
2023-01-28T23:54:12.278Z,100657.30
2023-01-28T23:56:39.665Z,100653.36
2023-01-28T23:59:06.339Z,100655.95
